Página principal
METAR-TAF:

METAR-TAF

Aeroportos :

Aeroporto Internacional de Piarco

Port of Spain, Trinidad, Trinidad e Tobago

latitude: 10-37N, longitude: 061-21W, altura: 12 m

Observação actual do tempo

O boletim foi feito há 46 minutos, às 02:00 UTC
Vento 5 kt de este
Temperatura 25°C
Humidade 83%
Pressão 1012 hPa
Visibilidade 10 km ou mais
Poucas nuvensa uma altura de 1800 ft

METAR: TTPP 230200Z 09005KT 9999 FEW018 25/22 Q1012 NOSIG

Hora: 22:46 (02:46 UTC)

Previsão

O boletim foi feito há 4 horas e 46 minutos, às 22:00 UTC
Previsão válida de 23 às 00 UTC a 23 às 24 UTC
Vento kt de norte
Visibilidade 10 km ou mais
Poucas nuvensa uma altura de 1600 ft
Tornando-se
de 23 às 12 UTC a 23 às 14 UTC
Vento 10 kt de este
Poucas nuvensa uma altura de 2400 ft

TAF: TTPP 222200Z 2300/2324 00000KT 9999 FEW016 BECMG 2312/2314 10010KT FEW024

Observações e previsões do tempo de mais de 4000 aeroportos (mensagens METAR e TAF).

As estações disponíveis são os pontos amarelos e vermelhos sobre o mapa.

Mova o rato sobre o mapa para ver o nome da estação.

Depois clique no ponto para visualizar as observações e previsões meteorológicas.

Para alterar o mapa : clique nos botões verdes com uma cruz preta para aumentar o zoom; no botão verde com uma pitada de zoom; ou nas setas verdes para mapas adjacentes.


METAR-TAF: